Terminal Aerodrome Forecast
Issued by NWS

Home | Current Version | Previous Version | Text Only | Print | Product List | Glossary On
Versions: 1 2 3 4 5 6 7 8 9 10 11 12 13 14 15 16 17
000
FTPQ31 PGUM 262025 RRM
TAFGRO
TAF

TAF
PGWT 262025Z 2620/2718 VRB03KT P6SM VCSH SCT013 SCT050 BKN100
     FM270100 07007KT P6SM VCSH SCT015 SCT050 BKN120=

USA.gov is the U.S. government's official web portal to all federal, state and local government web resources and services.